createdAt,value
2022-11-26T00:00:29.170Z,1028.94
2022-11-26T00:01:29.144Z,1028.95
2022-11-26T00:02:29.366Z,1028.98
2022-11-26T00:03:29.203Z,1029.04
2022-11-26T00:04:29.144Z,1029.02
2022-11-26T00:05:29.082Z,1029.06
2022-11-26T00:06:29.170Z,1029.05
2022-11-26T00:07:29.134Z,1029.05
2022-11-26T00:08:29.084Z,1029.06
2022-11-26T00:09:29.082Z,1029.08
2022-11-26T00:10:29.108Z,1029.06
2022-11-26T00:11:29.029Z,1029.05
2022-11-26T00:12:29.015Z,1029.03
2022-11-26T00:13:29.000Z,1029.07
2022-11-26T00:14:29.003Z,1029.08
2022-11-26T00:15:28.985Z,1029.10
2022-11-26T00:16:29.018Z,1029.15
2022-11-26T00:17:28.944Z,1029.19
2022-11-26T00:18:28.908Z,1029.22
2022-11-26T00:19:28.954Z,1029.28
2022-11-26T00:20:28.956Z,1029.35
2022-11-26T00:21:28.903Z,1029.32
2022-11-26T00:22:28.877Z,1029.34
2022-11-26T00:23:28.927Z,1029.35
2022-11-26T00:24:28.833Z,1029.40
2022-11-26T00:25:28.840Z,1029.43
2022-11-26T00:26:28.842Z,1029.43
2022-11-26T00:27:28.859Z,1029.43
2022-11-26T00:28:28.819Z,1029.45
2022-11-26T00:29:28.787Z,1029.46
2022-11-26T00:30:28.753Z,1029.48
2022-11-26T00:31:28.882Z,1029.50
2022-11-26T00:32:28.790Z,1029.49
2022-11-26T00:33:28.768Z,1029.50
2022-11-26T00:34:28.707Z,1029.50
2022-11-26T00:35:28.749Z,1029.54
2022-11-26T00:36:28.679Z,1029.54
2022-11-26T00:37:28.702Z,1029.54
2022-11-26T00:38:28.653Z,1029.52
2022-11-26T00:39:28.664Z,1029.54
2022-11-26T00:40:28.642Z,1029.55
2022-11-26T00:41:28.658Z,1029.56
2022-11-26T00:42:28.636Z,1029.54
2022-11-26T00:43:28.615Z,1029.56
2022-11-26T00:44:28.647Z,1029.59
2022-11-26T00:45:28.619Z,1029.58
2022-11-26T00:46:28.544Z,1029.59
2022-11-26T00:47:28.569Z,1029.54
2022-11-26T00:48:28.560Z,1029.56
2022-11-26T00:49:28.559Z,1029.55
2022-11-26T00:50:28.507Z,1029.59
2022-11-26T00:51:28.571Z,1029.60
2022-11-26T00:52:28.458Z,1029.63
2022-11-26T00:53:28.530Z,1029.70
2022-11-26T00:54:28.436Z,1029.67
2022-11-26T00:55:28.487Z,1029.71
2022-11-26T00:56:28.428Z,1029.72
2022-11-26T00:57:28.421Z,1029.73
2022-11-26T00:58:28.483Z,1029.75
2022-11-26T00:59:28.435Z,1029.77
2022-11-26T01:00:28.357Z,1029.80
2022-11-26T01:01:28.420Z,1029.81
2022-11-26T01:02:28.439Z,1029.83
2022-11-26T01:03:28.338Z,1029.80
2022-11-26T01:04:28.331Z,1029.82
2022-11-26T01:05:28.407Z,1029.81
2022-11-26T01:06:28.298Z,1029.80
2022-11-26T01:07:28.304Z,1029.89
2022-11-26T01:08:28.286Z,1029.88
2022-11-26T01:09:28.282Z,1029.88
2022-11-26T01:10:28.283Z,1029.88
2022-11-26T01:11:28.238Z,1029.86
2022-11-26T01:12:28.298Z,1029.91
2022-11-26T01:13:28.218Z,1029.92
2022-11-26T01:14:28.173Z,1029.93
2022-11-26T01:15:28.238Z,1029.98
2022-11-26T01:16:28.195Z,1030.01
2022-11-26T01:17:28.159Z,1030.00
2022-11-26T01:18:28.150Z,1030.03
2022-11-26T01:19:28.239Z,1030.10
2022-11-26T01:20:28.098Z,1030.14
2022-11-26T01:21:28.277Z,1030.13
2022-11-26T01:22:28.100Z,1030.15
2022-11-26T01:23:28.097Z,1030.15
2022-11-26T01:24:28.036Z,1030.15
2022-11-26T01:25:28.068Z,1030.19
2022-11-26T01:26:28.051Z,1030.18
2022-11-26T01:27:28.034Z,1030.20
2022-11-26T01:28:28.063Z,1030.22
2022-11-26T01:29:27.993Z,1030.21
2022-11-26T01:30:27.956Z,1030.24
2022-11-26T01:31:28.075Z,1030.20
2022-11-26T01:32:29.633Z,1030.22
2022-11-26T01:33:27.963Z,1030.25
2022-11-26T01:34:27.917Z,1030.22
2022-11-26T01:35:27.924Z,1030.26
2022-11-26T01:36:27.916Z,1030.28
2022-11-26T01:37:27.968Z,1030.29
2022-11-26T01:38:27.895Z,1030.30
2022-11-26T01:39:27.882Z,1030.30
2022-11-26T01:40:27.902Z,1030.31
2022-11-26T01:42:44.489Z,1030.34
2022-11-26T01:43:45.465Z,1030.30
2022-11-26T01:44:45.425Z,1030.30
2022-11-26T01:45:45.477Z,1030.35
2022-11-26T01:46:45.408Z,1030.31
2022-11-26T01:47:45.534Z,1030.34
2022-11-26T01:48:45.381Z,1030.33
2022-11-26T01:49:45.447Z,1030.37
2022-11-26T01:50:45.352Z,1030.34
2022-11-26T01:51:45.368Z,1030.39
2022-11-26T01:52:45.373Z,1030.40
2022-11-26T01:53:45.365Z,1030.40
2022-11-26T01:54:45.302Z,1030.43
2022-11-26T01:55:45.367Z,1030.41
2022-11-26T01:56:45.284Z,1030.43
2022-11-26T01:57:45.266Z,1030.42
2022-11-26T01:58:45.307Z,1030.44
2022-11-26T01:59:45.242Z,1030.41
2022-11-26T02:00:45.320Z,1030.42
2022-11-26T02:01:45.262Z,1030.44
2022-11-26T02:02:45.274Z,1030.35
2022-11-26T02:03:45.191Z,1030.37
2022-11-26T02:04:45.221Z,1030.38
2022-11-26T02:05:45.191Z,1030.36
2022-11-26T02:06:45.165Z,1030.35
2022-11-26T02:07:45.216Z,1030.40
2022-11-26T02:08:45.165Z,1030.38
2022-11-26T02:09:45.146Z,1030.35
2022-11-26T02:10:45.137Z,1030.40
2022-11-26T02:11:45.109Z,1030.40
2022-11-26T02:12:45.095Z,1030.41
2022-11-26T02:13:45.072Z,1030.34
2022-11-26T02:14:45.085Z,1030.41
2022-11-26T02:15:45.119Z,1030.41
2022-11-26T02:16:45.091Z,1030.43
2022-11-26T02:17:45.012Z,1030.46
2022-11-26T02:18:45.031Z,1030.46
2022-11-26T02:19:44.987Z,1030.45
2022-11-26T02:20:45.021Z,1030.49
2022-11-26T02:21:44.982Z,1030.50
2022-11-26T02:22:44.989Z,1030.49
2022-11-26T02:23:44.930Z,1030.46
2022-11-26T02:24:44.945Z,1030.48
2022-11-26T02:25:44.919Z,1030.47
2022-11-26T02:26:44.938Z,1030.50
2022-11-26T02:27:44.875Z,1030.52
2022-11-26T02:28:44.933Z,1030.49
2022-11-26T02:29:44.860Z,1030.52
2022-11-26T02:30:44.882Z,1030.49
2022-11-26T02:31:44.928Z,1030.49
2022-11-26T02:32:44.847Z,1030.46
2022-11-26T02:33:44.801Z,1030.46
2022-11-26T02:34:44.987Z,1030.46
2022-11-26T02:35:44.788Z,1030.43
2022-11-26T02:36:44.792Z,1030.43
2022-11-26T02:37:44.782Z,1030.41
2022-11-26T02:38:44.776Z,1030.36
2022-11-26T02:39:44.729Z,1030.33
2022-11-26T02:40:44.735Z,1030.40
2022-11-26T02:41:44.757Z,1030.40
2022-11-26T02:42:44.739Z,1030.41
2022-11-26T02:43:44.676Z,1030.43
2022-11-26T02:44:44.751Z,1030.42
2022-11-26T02:45:44.697Z,1030.43
2022-11-26T02:46:44.671Z,1030.43
2022-11-26T02:47:44.697Z,1030.41
2022-11-26T02:48:44.658Z,1030.40
2022-11-26T02:49:44.601Z,1030.34
2022-11-26T02:50:44.606Z,1030.38
2022-11-26T02:51:44.575Z,1030.36
2022-11-26T02:52:44.586Z,1030.30
2022-11-26T02:53:44.575Z,1030.27
2022-11-26T02:54:44.645Z,1030.25
2022-11-26T02:55:44.521Z,1030.21
2022-11-26T02:56:44.541Z,1030.20
2022-11-26T02:57:44.538Z,1030.20
2022-11-26T02:58:44.507Z,1030.17
2022-11-26T02:59:44.494Z,1030.15
2022-11-26T03:00:44.575Z,1030.17
2022-11-26T03:01:44.441Z,1030.17
2022-11-26T03:02:44.459Z,1030.19
2022-11-26T03:03:44.507Z,1030.16
2022-11-26T03:04:44.462Z,1030.17
2022-11-26T03:05:44.392Z,1030.18
2022-11-26T03:06:44.447Z,1030.15
2022-11-26T03:07:44.418Z,1030.17
2022-11-26T03:08:44.375Z,1030.19
2022-11-26T03:09:44.420Z,1030.19
2022-11-26T03:10:44.381Z,1030.20
2022-11-26T03:11:44.374Z,1030.27
2022-11-26T03:12:44.333Z,1030.27
2022-11-26T03:13:44.333Z,1030.24
2022-11-26T03:14:44.297Z,1030.23
2022-11-26T03:15:44.289Z,1030.25
2022-11-26T03:16:44.426Z,1030.22
2022-11-26T03:17:44.236Z,1030.27
2022-11-26T03:18:44.258Z,1030.28
2022-11-26T03:19:44.296Z,1030.32
2022-11-26T03:20:44.287Z,1030.35
2022-11-26T03:21:44.187Z,1030.32
2022-11-26T03:22:44.202Z,1030.31
2022-11-26T03:23:44.171Z,1030.28
2022-11-26T03:24:44.181Z,1030.32
2022-11-26T03:25:44.146Z,1030.34
2022-11-26T03:26:44.217Z,1030.38
2022-11-26T03:27:44.141Z,1030.35
2022-11-26T03:28:44.125Z,1030.35
2022-11-26T03:29:44.081Z,1030.35
2022-11-26T03:30:44.098Z,1030.32
2022-11-26T03:31:44.173Z,1030.33
2022-11-26T03:32:44.073Z,1030.30
2022-11-26T03:33:44.040Z,1030.33
2022-11-26T03:34:44.058Z,1030.31
2022-11-26T03:35:44.012Z,1030.30
2022-11-26T03:36:44.114Z,1030.36
2022-11-26T03:37:44.007Z,1030.36
2022-11-26T03:38:44.067Z,1030.38
2022-11-26T03:39:43.976Z,1030.39
2022-11-26T03:40:43.962Z,1030.39
2022-11-26T03:41:44.005Z,1030.39
2022-11-26T03:42:43.975Z,1030.38
2022-11-26T03:43:43.908Z,1030.36
2022-11-26T03:44:43.972Z,1030.37
2022-11-26T03:45:43.973Z,1030.33
2022-11-26T03:46:43.908Z,1030.33
2022-11-26T03:47:43.859Z,1030.34
2022-11-26T03:48:43.895Z,1030.31
2022-11-26T03:49:43.828Z,1030.32
2022-11-26T03:50:43.835Z,1030.32
2022-11-26T03:51:43.820Z,1030.38
2022-11-26T03:52:43.815Z,1030.39
2022-11-26T03:53:43.810Z,1030.41
2022-11-26T03:54:43.798Z,1030.43
2022-11-26T03:55:43.751Z,1030.44
2022-11-26T03:56:43.777Z,1030.52
2022-11-26T03:57:43.766Z,1030.54
2022-11-26T03:58:43.734Z,1030.58
2022-11-26T03:59:43.723Z,1030.59
2022-11-26T04:00:43.714Z,1030.62
2022-11-26T04:01:43.748Z,1030.58
2022-11-26T04:02:43.821Z,1030.58
2022-11-26T04:03:43.648Z,1030.59
2022-11-26T04:04:43.708Z,1030.60
2022-11-26T04:05:43.631Z,1030.63
2022-11-26T04:06:43.633Z,1030.62
2022-11-26T04:07:43.666Z,1030.68
2022-11-26T04:08:43.616Z,1030.69
2022-11-26T04:09:43.572Z,1030.76
2022-11-26T04:10:43.642Z,1030.79
2022-11-26T04:11:43.547Z,1030.79
2022-11-26T04:12:43.553Z,1030.81
2022-11-26T04:13:43.522Z,1030.84
2022-11-26T04:14:43.526Z,1030.82
2022-11-26T04:15:43.544Z,1030.84
2022-11-26T04:16:43.551Z,1030.84
2022-11-26T04:17:43.477Z,1030.83
2022-11-26T04:18:43.479Z,1030.82
2022-11-26T04:19:43.455Z,1030.82
2022-11-26T04:20:43.461Z,1030.79
2022-11-26T04:21:43.452Z,1030.76
2022-11-26T04:22:43.450Z,1030.76
2022-11-26T04:23:43.425Z,1030.78
2022-11-26T04:24:43.402Z,1030.79
2022-11-26T04:25:43.449Z,1030.82
2022-11-26T04:26:43.408Z,1030.83
2022-11-26T04:27:43.341Z,1030.88
2022-11-26T04:28:43.415Z,1030.90
2022-11-26T04:29:43.313Z,1030.92
2022-11-26T04:30:43.326Z,1030.90
2022-11-26T04:31:43.400Z,1030.90
2022-11-26T04:32:43.323Z,1030.91
2022-11-26T04:33:43.339Z,1030.91
2022-11-26T04:34:43.276Z,1030.84
2022-11-26T04:35:43.237Z,1030.88
2022-11-26T04:36:43.251Z,1030.89
2022-11-26T04:37:43.243Z,1030.93
2022-11-26T04:38:43.230Z,1030.95
2022-11-26T04:39:43.256Z,1031.02
2022-11-26T04:40:43.209Z,1031.04
2022-11-26T04:41:43.163Z,1031.08
2022-11-26T04:42:43.228Z,1031.09
2022-11-26T04:43:43.177Z,1031.14
2022-11-26T04:44:43.146Z,1031.13
2022-11-26T04:45:43.203Z,1031.12
2022-11-26T04:46:43.117Z,1031.15
2022-11-26T04:47:43.344Z,1031.12
2022-11-26T04:48:43.155Z,1031.16
2022-11-26T04:49:43.063Z,1031.22
2022-11-26T04:50:43.102Z,1031.22
2022-11-26T04:51:43.035Z,1031.20
2022-11-26T04:52:43.072Z,1031.23
2022-11-26T04:53:43.040Z,1031.26
2022-11-26T04:54:43.052Z,1031.32
2022-11-26T04:55:42.997Z,1031.32
2022-11-26T04:56:42.995Z,1031.35
2022-11-26T04:57:42.965Z,1031.38
2022-11-26T04:58:42.977Z,1031.40
2022-11-26T04:59:42.979Z,1031.44
2022-11-26T05:00:42.993Z,1031.48
2022-11-26T05:01:42.980Z,1031.51
2022-11-26T05:02:43.001Z,1031.49
2022-11-26T05:03:42.882Z,1031.57
2022-11-26T05:04:42.897Z,1031.51
2022-11-26T05:05:42.927Z,1031.55
2022-11-26T05:06:42.868Z,1031.57
2022-11-26T05:07:42.941Z,1031.61
2022-11-26T05:08:42.893Z,1031.58
2022-11-26T05:09:42.812Z,1031.61
2022-11-26T05:10:42.862Z,1031.62
2022-11-26T05:11:42.794Z,1031.61
2022-11-26T05:12:42.809Z,1031.57
2022-11-26T05:13:42.759Z,1031.65
2022-11-26T05:14:42.761Z,1031.60
2022-11-26T05:15:42.730Z,1031.64
2022-11-26T05:16:42.874Z,1031.70
2022-11-26T05:17:42.700Z,1031.73
2022-11-26T05:18:42.711Z,1031.73
2022-11-26T05:19:42.723Z,1031.76
2022-11-26T05:20:42.701Z,1031.79
2022-11-26T05:21:42.678Z,1031.81
2022-11-26T05:22:42.700Z,1031.75
2022-11-26T05:23:42.628Z,1031.80
2022-11-26T05:24:42.651Z,1031.81
2022-11-26T05:25:42.602Z,1031.82
2022-11-26T05:26:42.648Z,1031.78
2022-11-26T05:27:42.605Z,1031.78
2022-11-26T05:28:42.590Z,1031.76
2022-11-26T05:29:42.555Z,1031.76
2022-11-26T05:30:42.564Z,1031.80
2022-11-26T05:31:42.574Z,1031.77
2022-11-26T05:32:42.577Z,1031.78
2022-11-26T05:33:42.566Z,1031.79
2022-11-26T05:34:42.515Z,1031.81
2022-11-26T05:35:42.477Z,1031.79
2022-11-26T05:36:42.549Z,1031.85
2022-11-26T05:37:42.453Z,1031.86
2022-11-26T05:38:42.490Z,1031.87
2022-11-26T05:39:42.472Z,1031.88
2022-11-26T05:40:42.428Z,1031.88
2022-11-26T05:41:42.393Z,1031.90
2022-11-26T05:42:42.417Z,1031.92
2022-11-26T05:43:42.402Z,1031.88
2022-11-26T05:44:42.453Z,1031.90
2022-11-26T05:45:42.428Z,1031.91
2022-11-26T05:46:42.353Z,1031.91
2022-11-26T05:47:42.339Z,1031.88
2022-11-26T05:48:42.339Z,1031.90
2022-11-26T05:49:42.378Z,1031.91
2022-11-26T05:50:42.313Z,1031.90
2022-11-26T05:51:42.290Z,1031.93
2022-11-26T05:52:42.344Z,1031.87
2022-11-26T05:53:42.248Z,1031.91
2022-11-26T05:54:42.275Z,1031.87
2022-11-26T05:55:42.226Z,1031.87
2022-11-26T05:56:42.246Z,1031.89
2022-11-26T05:57:42.260Z,1031.88
2022-11-26T05:58:42.200Z,1031.83
2022-11-26T05:59:42.181Z,1031.83
2022-11-26T06:00:42.239Z,1031.84
2022-11-26T06:01:42.170Z,1031.84
2022-11-26T06:02:42.267Z,1031.81
2022-11-26T06:03:42.192Z,1031.78
2022-11-26T06:04:42.168Z,1031.76
2022-11-26T06:05:42.175Z,1031.71
2022-11-26T06:06:42.099Z,1031.67
2022-11-26T06:07:45.012Z,1031.68
2022-11-26T06:08:42.075Z,1031.66
2022-11-26T06:09:42.050Z,1031.62
2022-11-26T06:10:42.045Z,1031.67
2022-11-26T06:11:42.040Z,1031.59
2022-11-26T06:12:42.089Z,1031.64
2022-11-26T06:13:42.014Z,1031.67
2022-11-26T06:14:43.518Z,1031.67
2022-11-26T06:15:41.981Z,1031.71
2022-11-26T06:16:42.125Z,1031.71
2022-11-26T06:17:41.963Z,1031.68
2022-11-26T06:18:41.932Z,1031.67
2022-11-26T06:19:41.927Z,1031.67
2022-11-26T06:20:41.908Z,1031.71
2022-11-26T06:21:41.949Z,1031.72
2022-11-26T06:22:41.930Z,1031.78
2022-11-26T06:23:47.501Z,1031.79
2022-11-26T06:24:41.905Z,1031.82
2022-11-26T06:25:41.851Z,1031.81
2022-11-26T06:26:41.765Z,1031.86
2022-11-26T06:27:41.847Z,1031.80
2022-11-26T06:28:41.745Z,1031.84
2022-11-26T06:29:41.750Z,1031.88
2022-11-26T06:30:41.713Z,1031.87
2022-11-26T06:31:41.813Z,1031.85
2022-11-26T06:32:41.707Z,1031.90
2022-11-26T06:33:41.749Z,1031.87
2022-11-26T06:34:43.908Z,1031.87
2022-11-26T06:35:41.681Z,1031.89
2022-11-26T06:36:41.633Z,1031.87
2022-11-26T06:37:41.646Z,1031.87
2022-11-26T06:38:41.709Z,1031.85
2022-11-26T06:39:41.624Z,1031.86
2022-11-26T06:40:41.596Z,1031.90
2022-11-26T06:41:41.656Z,1031.89
2022-11-26T06:42:41.553Z,1031.93
2022-11-26T06:43:41.575Z,1032.00
2022-11-26T06:44:41.643Z,1032.01
2022-11-26T06:45:41.834Z,1031.95
2022-11-26T06:46:41.506Z,1031.99
2022-11-26T06:47:41.522Z,1032.03
2022-11-26T06:48:41.570Z,1032.04
2022-11-26T06:49:41.537Z,1032.06
2022-11-26T06:50:41.453Z,1032.09
2022-11-26T06:51:41.467Z,1032.16
2022-11-26T06:52:41.481Z,1032.15
2022-11-26T06:53:41.444Z,1032.15
2022-11-26T06:54:41.402Z,1032.18
2022-11-26T06:55:41.504Z,1032.18
2022-11-26T06:56:41.392Z,1032.27
2022-11-26T06:57:41.386Z,1032.29
2022-11-26T06:58:41.346Z,1032.33
2022-11-26T06:59:41.362Z,1032.33
2022-11-26T07:00:41.432Z,1032.35
2022-11-26T07:01:41.423Z,1032.38
2022-11-26T07:02:41.392Z,1032.39
2022-11-26T07:03:41.357Z,1032.37
2022-11-26T07:04:41.433Z,1032.43
2022-11-26T07:05:41.284Z,1032.44
2022-11-26T07:06:41.276Z,1032.46
2022-11-26T07:07:41.459Z,1032.48
2022-11-26T07:08:41.222Z,1032.47
2022-11-26T07:09:41.244Z,1032.46
2022-11-26T07:10:44.839Z,1032.47
2022-11-26T07:11:41.252Z,1032.48
2022-11-26T07:12:41.191Z,1032.49
2022-11-26T07:13:41.187Z,1032.49
2022-11-26T07:14:41.602Z,1032.50
2022-11-26T07:15:41.227Z,1032.58
2022-11-26T07:16:41.124Z,1032.56
2022-11-26T07:17:41.183Z,1032.56
2022-11-26T07:18:41.101Z,1032.52
2022-11-26T07:19:41.107Z,1032.48
2022-11-26T07:20:41.133Z,1032.45
2022-11-26T07:21:41.123Z,1032.49
2022-11-26T07:22:41.079Z,1032.49
2022-11-26T07:23:41.088Z,1032.52
2022-11-26T07:24:41.292Z,1032.52
2022-11-26T07:25:41.040Z,1032.46
2022-11-26T07:26:41.003Z,1032.53
2022-11-26T07:27:41.070Z,1032.51
2022-11-26T07:28:41.024Z,1032.53
2022-11-26T07:29:41.026Z,1032.60
2022-11-26T07:30:40.945Z,1032.59
2022-11-26T07:31:41.124Z,1032.60
2022-11-26T07:32:40.926Z,1032.66
2022-11-26T07:33:40.971Z,1032.69
2022-11-26T07:34:41.207Z,1032.72
2022-11-26T07:35:40.915Z,1032.78
2022-11-26T07:36:40.876Z,1032.73
2022-11-26T07:37:40.929Z,1032.73
2022-11-26T07:38:40.842Z,1032.73
2022-11-26T07:39:40.881Z,1032.73
2022-11-26T07:40:40.870Z,1032.74
2022-11-26T07:41:40.821Z,1032.70
2022-11-26T07:42:40.786Z,1032.71
2022-11-26T07:43:40.834Z,1032.72
2022-11-26T07:44:40.930Z,1032.73
2022-11-26T07:45:40.789Z,1032.71
2022-11-26T07:46:40.894Z,1032.78
2022-11-26T07:47:40.741Z,1032.76
2022-11-26T07:48:40.710Z,1032.78
2022-11-26T07:49:40.804Z,1032.78
2022-11-26T07:50:40.698Z,1032.79
2022-11-26T07:51:40.697Z,1032.77
2022-11-26T07:52:40.724Z,1032.83
2022-11-26T07:53:40.674Z,1032.83
2022-11-26T07:54:40.948Z,1032.87
2022-11-26T07:55:40.682Z,1032.93
2022-11-26T07:56:40.609Z,1032.97
2022-11-26T07:57:40.640Z,1032.95
2022-11-26T07:58:40.633Z,1032.95
2022-11-26T07:59:40.594Z,1032.94
2022-11-26T08:00:40.591Z,1033.00
2022-11-26T08:01:40.688Z,1033.03
2022-11-26T08:02:40.575Z,1033.03
2022-11-26T08:03:40.551Z,1033.08
2022-11-26T08:04:40.833Z,1033.04
2022-11-26T08:05:40.592Z,1033.12
2022-11-26T08:06:40.506Z,1033.11
2022-11-26T08:07:40.516Z,1033.09
2022-11-26T08:08:40.514Z,1033.12
2022-11-26T08:09:40.494Z,1033.14
2022-11-26T08:10:40.428Z,1033.14
2022-11-26T08:11:40.469Z,1033.13
2022-11-26T08:12:40.556Z,1033.17
2022-11-26T08:13:40.430Z,1033.19
2022-11-26T08:14:40.724Z,1033.13
2022-11-26T08:15:40.402Z,1033.19
2022-11-26T08:16:40.480Z,1033.20
2022-11-26T08:17:40.398Z,1033.09
2022-11-26T08:18:40.547Z,1033.15
2022-11-26T08:19:40.333Z,1033.12
2022-11-26T08:20:40.349Z,1033.09
2022-11-26T08:21:40.309Z,1033.10
2022-11-26T08:22:40.288Z,1033.09
2022-11-26T08:23:40.288Z,1033.09
2022-11-26T08:24:40.604Z,1033.12
2022-11-26T08:25:59.267Z,1033.11
2022-11-26T08:26:44.152Z,1033.14
2022-11-26T08:27:40.232Z,1033.10
2022-11-26T08:28:40.215Z,1033.13
2022-11-26T08:29:40.224Z,1033.11
2022-11-26T08:30:40.197Z,1033.15
2022-11-26T08:31:45.206Z,1033.13
2022-11-26T08:32:40.169Z,1033.13
2022-11-26T08:33:40.155Z,1033.11
2022-11-26T08:34:40.338Z,1033.08
2022-11-26T08:36:05.477Z,1033.06
2022-11-26T08:36:40.100Z,1033.12
2022-11-26T08:37:42.384Z,1033.10
2022-11-26T08:38:40.074Z,1033.11
2022-11-26T08:39:40.083Z,1033.15
2022-11-26T08:40:40.057Z,1033.16
2022-11-26T08:41:40.064Z,1033.16
2022-11-26T08:42:40.066Z,1033.16
2022-11-26T08:44:04.970Z,1033.17
2022-11-26T08:44:40.516Z,1033.12
2022-11-26T08:45:40.010Z,1033.21
2022-11-26T08:46:40.095Z,1033.22
2022-11-26T08:47:39.985Z,1033.21
2022-11-26T08:48:40.004Z,1033.24
2022-11-26T08:49:39.980Z,1033.25
2022-11-26T08:50:39.931Z,1033.26
2022-11-26T08:51:39.937Z,1033.29
2022-11-26T08:52:39.892Z,1033.28
2022-11-26T08:53:39.942Z,1033.31
2022-11-26T08:54:44.774Z,1033.30
2022-11-26T08:55:59.172Z,1033.21
2022-11-26T08:56:39.847Z,1033.25
2022-11-26T08:57:39.863Z,1033.24
2022-11-26T08:58:39.813Z,1033.21
2022-11-26T08:59:39.862Z,1033.21
2022-11-26T09:00:39.793Z,1033.26
2022-11-26T09:01:39.933Z,1033.25
2022-11-26T09:02:39.855Z,1033.22
2022-11-26T09:03:39.778Z,1033.24
2022-11-26T09:04:40.268Z,1033.24
2022-11-26T09:05:39.744Z,1033.21
2022-11-26T09:06:39.756Z,1033.20
2022-11-26T09:07:39.776Z,1033.18
2022-11-26T09:08:39.716Z,1033.15
2022-11-26T09:09:39.702Z,1033.17
2022-11-26T09:10:39.705Z,1033.18
2022-11-26T09:11:39.680Z,1033.16
2022-11-26T09:12:39.660Z,1033.14
2022-11-26T09:13:39.650Z,1033.13
2022-11-26T09:14:39.944Z,1033.20
2022-11-26T09:15:39.649Z,1033.20
2022-11-26T09:16:39.634Z,1033.21
2022-11-26T09:17:39.597Z,1033.21
2022-11-26T09:18:39.562Z,1033.22
2022-11-26T09:19:39.572Z,1033.21
2022-11-26T09:20:39.539Z,1033.23
2022-11-26T09:21:39.577Z,1033.22
2022-11-26T09:22:39.509Z,1033.20
2022-11-26T09:23:39.539Z,1033.19
2022-11-26T09:24:39.648Z,1033.22
2022-11-26T09:25:39.497Z,1033.22
2022-11-26T09:26:39.669Z,1033.20
2022-11-26T09:27:39.582Z,1033.22
2022-11-26T09:28:39.438Z,1033.22
2022-11-26T09:29:39.459Z,1033.26
2022-11-26T09:30:39.425Z,1033.24
2022-11-26T09:31:54.993Z,1033.26
2022-11-26T09:32:39.501Z,1033.28
2022-11-26T09:33:39.398Z,1033.27
2022-11-26T09:34:39.579Z,1033.27
2022-11-26T09:35:39.366Z,1033.27
2022-11-26T09:36:39.362Z,1033.26
2022-11-26T09:37:39.467Z,1033.28
2022-11-26T09:38:39.328Z,1033.31
2022-11-26T09:39:39.313Z,1033.27
2022-11-26T09:40:39.407Z,1033.29
2022-11-26T09:41:39.306Z,1033.31
2022-11-26T09:42:39.279Z,1033.30
2022-11-26T09:43:39.406Z,1033.33
2022-11-26T09:44:39.480Z,1033.34
2022-11-26T09:45:39.375Z,1033.41
2022-11-26T09:46:50.888Z,1033.34
2022-11-26T09:47:39.227Z,1033.35
2022-11-26T09:48:39.243Z,1033.35
2022-11-26T09:49:39.202Z,1033.31
2022-11-26T09:50:39.160Z,1033.29
2022-11-26T09:51:39.162Z,1033.29
2022-11-26T09:52:39.149Z,1033.30
2022-11-26T09:53:39.169Z,1033.34
2022-11-26T09:54:39.512Z,1033.30
2022-11-26T09:55:39.127Z,1033.33
2022-11-26T09:56:39.084Z,1033.31
2022-11-26T09:57:39.597Z,1033.33
2022-11-26T09:58:39.064Z,1033.35
2022-11-26T09:59:39.092Z,1033.32
2022-11-26T10:00:39.200Z,1033.35
2022-11-26T10:01:39.085Z,1033.31
2022-11-26T10:02:39.071Z,1033.31
2022-11-26T10:03:39.015Z,1033.34
2022-11-26T10:04:39.178Z,1033.38
2022-11-26T10:05:39.052Z,1033.38
2022-11-26T10:06:38.942Z,1033.33
2022-11-26T10:07:39.051Z,1033.32
2022-11-26T10:08:38.928Z,1033.35
2022-11-26T10:09:38.927Z,1033.31
2022-11-26T10:10:38.935Z,1033.27
2022-11-26T10:11:38.901Z,1033.30
2022-11-26T10:13:03.089Z,1033.28
2022-11-26T10:13:38.887Z,1033.23
2022-11-26T10:14:39.269Z,1033.21
2022-11-26T10:15:38.950Z,1033.19
2022-11-26T10:16:38.965Z,1033.20
2022-11-26T10:17:38.828Z,1033.18
2022-11-26T10:18:38.830Z,1033.17
2022-11-26T10:19:38.805Z,1033.16
2022-11-26T10:20:38.764Z,1033.14
2022-11-26T10:21:58.202Z,1033.11
2022-11-26T10:22:38.767Z,1033.12
2022-11-26T10:23:38.761Z,1033.09
2022-11-26T10:24:39.253Z,1033.08
2022-11-26T10:25:38.785Z,1033.07
2022-11-26T10:26:38.698Z,1033.05
2022-11-26T10:27:38.728Z,1033.07
2022-11-26T10:28:38.742Z,1033.04
2022-11-26T10:29:38.675Z,1032.98
2022-11-26T10:30:38.658Z,1032.99
2022-11-26T10:31:38.679Z,1033.00
2022-11-26T10:32:38.736Z,1032.98
2022-11-26T10:33:38.621Z,1032.99
2022-11-26T10:34:39.334Z,1032.99
2022-11-26T10:35:38.604Z,1032.96
2022-11-26T10:36:38.678Z,1032.88
2022-11-26T10:37:38.549Z,1032.92
2022-11-26T10:38:38.589Z,1032.90
2022-11-26T10:39:38.574Z,1032.91
2022-11-26T10:40:38.534Z,1032.92
2022-11-26T10:41:38.515Z,1032.85
2022-11-26T10:42:38.511Z,1032.88
2022-11-26T10:43:38.504Z,1032.86
2022-11-26T10:44:38.792Z,1032.85
2022-11-26T10:45:38.437Z,1032.88
2022-11-26T10:46:38.533Z,1032.85
2022-11-26T10:47:38.447Z,1032.86
2022-11-26T10:48:38.482Z,1032.87
2022-11-26T10:49:38.417Z,1032.86
2022-11-26T10:50:47.519Z,1032.91
2022-11-26T10:51:38.386Z,1032.90
2022-11-26T10:52:38.413Z,1032.91
2022-11-26T10:53:38.339Z,1032.96
2022-11-26T10:54:38.702Z,1032.98
2022-11-26T10:55:38.308Z,1033.00
2022-11-26T10:56:38.324Z,1033.08
2022-11-26T10:57:38.294Z,1033.08
2022-11-26T10:58:38.307Z,1033.07
2022-11-26T10:59:38.510Z,1033.04
2022-11-26T11:00:38.369Z,1033.01
2022-11-26T11:01:38.238Z,1032.94
2022-11-26T11:02:38.268Z,1032.92
2022-11-26T11:04:06.640Z,1032.89
2022-11-26T11:04:38.232Z,1032.91
2022-11-26T11:05:38.227Z,1032.92
2022-11-26T11:06:38.197Z,1032.89
2022-11-26T11:07:38.265Z,1032.83
2022-11-26T11:08:38.164Z,1032.80
2022-11-26T11:09:38.141Z,1032.87
2022-11-26T11:10:38.139Z,1032.88
2022-11-26T11:11:38.159Z,1032.91
2022-11-26T11:12:38.134Z,1032.96
2022-11-26T11:13:38.084Z,1032.92
2022-11-26T11:14:42.346Z,1032.89
2022-11-26T11:15:38.093Z,1032.93
2022-11-26T11:16:38.167Z,1032.90
2022-11-26T11:17:38.028Z,1032.92
2022-11-26T11:18:38.043Z,1032.89
2022-11-26T11:19:38.014Z,1032.89
2022-11-26T11:20:38.060Z,1032.89
2022-11-26T11:21:37.974Z,1032.87
2022-11-26T11:22:38.018Z,1032.88
2022-11-26T11:24:07.229Z,1032.93
2022-11-26T11:24:37.984Z,1032.93
2022-11-26T11:25:37.925Z,1032.98
2022-11-26T11:26:37.936Z,1033.02
2022-11-26T11:27:37.968Z,1032.99
2022-11-26T11:28:37.910Z,1032.98
2022-11-26T11:29:37.879Z,1033.00
2022-11-26T11:30:37.887Z,1033.05
2022-11-26T11:31:37.895Z,1033.08
2022-11-26T11:32:37.859Z,1033.10
2022-11-26T11:33:37.935Z,1033.15
2022-11-26T11:34:38.238Z,1033.19
2022-11-26T11:35:37.829Z,1033.23
2022-11-26T11:36:37.805Z,1033.23
2022-11-26T11:37:37.767Z,1033.27
2022-11-26T11:38:37.951Z,1033.28
2022-11-26T11:39:37.747Z,1033.23
2022-11-26T11:40:37.748Z,1033.21
2022-11-26T11:41:37.720Z,1033.19
2022-11-26T11:42:37.750Z,1033.21
2022-11-26T11:43:37.697Z,1033.17
2022-11-26T11:44:38.148Z,1033.18
2022-11-26T11:45:37.729Z,1033.13
2022-11-26T11:46:37.688Z,1033.11
2022-11-26T11:47:37.639Z,1033.14
2022-11-26T11:48:37.667Z,1033.17
2022-11-26T11:49:37.659Z,1033.22
2022-11-26T11:50:37.640Z,1033.22
2022-11-26T11:51:37.589Z,1033.26
2022-11-26T11:52:37.614Z,1033.21
2022-11-26T11:53:37.579Z,1033.20
2022-11-26T11:54:37.769Z,1033.19
2022-11-26T11:55:37.583Z,1033.17
2022-11-26T11:56:37.547Z,1033.14
2022-11-26T11:57:37.540Z,1033.13
2022-11-26T11:58:37.523Z,1033.17
2022-11-26T11:59:37.490Z,1033.10
2022-11-26T12:00:37.535Z,1033.06
2022-11-26T12:01:37.482Z,1033.01
2022-11-26T12:02:37.523Z,1033.06
2022-11-26T12:03:37.432Z,1033.03
2022-11-26T12:04:37.843Z,1033.09
2022-11-26T12:05:37.422Z,1033.07
2022-11-26T12:06:37.448Z,1033.01